createdAt,value
2022-09-12T00:00:50.449Z,6.77
2022-09-12T00:02:55.965Z,7.47
2022-09-12T00:04:59.203Z,6.70
2022-09-12T00:07:01.786Z,6.20
2022-09-12T00:09:13.496Z,6.00
2022-09-12T00:11:16.103Z,6.30
2022-09-12T00:13:18.669Z,5.93
2022-09-12T00:15:21.281Z,6.17
2022-09-12T00:17:23.856Z,6.00
2022-09-12T00:19:30.026Z,5.63
2022-09-12T00:21:38.445Z,6.33
2022-09-12T00:23:40.995Z,5.43
2022-09-12T00:25:46.013Z,6.22
2022-09-12T00:27:48.822Z,6.60
2022-09-12T00:29:52.578Z,5.80
2022-09-12T00:31:55.163Z,6.87
2022-09-12T00:34:00.874Z,7.40
2022-09-12T00:36:24.449Z,7.10
2022-09-12T00:38:27.059Z,6.53
2022-09-12T00:40:30.074Z,6.63
2022-09-12T00:42:32.594Z,5.87
2022-09-12T00:44:35.042Z,5.70
2022-09-12T00:46:43.104Z,6.33
2022-09-12T00:48:56.443Z,6.23
2022-09-12T00:50:59.141Z,6.97
2022-09-12T00:53:06.539Z,7.70
2022-09-12T00:55:21.253Z,8.50
2022-09-12T00:57:29.666Z,8.23
2022-09-12T01:00:13.870Z,6.60
2022-09-12T01:02:17.066Z,4.80
2022-09-12T01:04:24.949Z,5.35
2022-09-12T01:06:39.180Z,4.97
2022-09-12T01:08:44.735Z,3.97
2022-09-12T01:10:47.872Z,4.30
2022-09-12T01:12:50.824Z,4.00
2022-09-12T01:14:53.389Z,4.30
2022-09-12T01:16:55.897Z,4.07
2022-09-12T01:19:16.920Z,3.30
2022-09-12T01:22:17.146Z,3.90
2022-09-12T01:24:38.039Z,4.00
2022-09-12T01:26:59.879Z,4.17
2022-09-12T01:29:19.914Z,4.30
2022-09-12T01:31:38.546Z,4.80
2022-09-12T01:34:18.212Z,4.27
2022-09-12T01:37:00.170Z,4.28
2022-09-12T01:39:09.233Z,4.17
2022-09-12T01:41:23.789Z,4.40
2022-09-12T01:43:41.130Z,4.57
2022-09-12T01:46:03.101Z,3.93
2022-09-12T01:48:16.326Z,4.90
2022-09-12T01:50:25.106Z,5.20
2022-09-12T01:52:44.945Z,4.73
2022-09-12T01:55:13.950Z,4.83
2022-09-12T01:57:28.820Z,4.50
2022-09-12T01:59:47.204Z,5.37
2022-09-12T02:02:02.925Z,5.67
2022-09-12T02:04:23.545Z,4.73
2022-09-12T02:06:52.377Z,4.80
2022-09-12T02:09:08.748Z,5.20
2022-09-12T02:11:12.804Z,5.30
2022-09-12T02:13:41.264Z,4.70
2022-09-12T02:15:54.705Z,4.60
2022-09-12T02:18:01.200Z,4.30
2022-09-12T02:20:31.065Z,5.70
2022-09-12T02:22:39.842Z,5.23
2022-09-12T02:24:48.427Z,5.67
2022-09-12T02:26:58.750Z,5.50
2022-09-12T02:29:01.879Z,4.57
2022-09-12T02:31:21.555Z,4.70
2022-09-12T02:33:33.417Z,4.70
2022-09-12T02:36:02.501Z,4.77
2022-09-12T02:38:16.141Z,3.60
2022-09-12T02:40:19.336Z,4.33
2022-09-12T02:42:23.211Z,4.90
2022-09-12T02:44:29.182Z,4.57
2022-09-12T02:46:43.924Z,4.63
2022-09-12T02:48:46.655Z,4.30
2022-09-12T02:50:49.525Z,5.17
2022-09-12T02:52:54.810Z,4.50
2022-09-12T02:54:59.762Z,4.90
2022-09-12T02:57:02.322Z,4.80
2022-09-12T02:59:08.625Z,4.43
2022-09-12T03:01:58.486Z,4.40
2022-09-12T03:04:24.615Z,4.00
2022-09-12T03:07:07.075Z,4.13
2022-09-12T03:09:34.953Z,4.30
2022-09-12T03:12:13.883Z,4.53
2022-09-12T03:14:16.381Z,5.37
2022-09-12T03:16:42.367Z,3.73
2022-09-12T03:19:20.029Z,4.90
2022-09-12T03:21:53.956Z,4.60
2022-09-12T03:24:33.302Z,4.27
2022-09-12T03:26:42.596Z,4.70
2022-09-12T03:28:46.700Z,4.23
2022-09-12T03:30:54.899Z,4.20
2022-09-12T03:32:57.519Z,4.73
2022-09-12T03:35:00.094Z,4.03
2022-09-12T03:37:02.991Z,4.97
2022-09-12T03:39:05.568Z,5.53
2022-09-12T03:41:08.447Z,4.67
2022-09-12T03:43:11.321Z,4.97
2022-09-12T03:45:14.016Z,5.60
2022-09-12T03:47:16.633Z,5.03
2022-09-12T03:49:19.199Z,5.40
2022-09-12T03:51:25.416Z,6.40
2022-09-12T03:53:28.046Z,5.27
2022-09-12T03:55:31.185Z,5.60
2022-09-12T03:57:34.197Z,6.10
2022-09-12T03:59:36.935Z,5.63
2022-09-12T04:01:40.848Z,4.97
2022-09-12T04:03:46.758Z,5.73
2022-09-12T04:05:49.393Z,5.40
2022-09-12T04:07:52.593Z,5.50
2022-09-12T04:09:55.275Z,4.97
2022-09-12T04:11:57.921Z,5.23
2022-09-12T04:14:00.669Z,5.77
2022-09-12T04:16:04.813Z,5.13
2022-09-12T04:18:07.611Z,6.20
2022-09-12T04:20:10.549Z,5.63
2022-09-12T04:22:22.322Z,4.90
2022-09-12T04:24:24.920Z,4.40
2022-09-12T04:26:29.883Z,5.53
2022-09-12T04:28:33.380Z,4.80
2022-09-12T04:30:36.664Z,4.87
2022-09-12T04:32:39.255Z,4.73
2022-09-12T04:34:41.877Z,4.83
2022-09-12T04:36:44.430Z,4.13
2022-09-12T04:38:48.139Z,4.77
2022-09-12T04:40:50.708Z,4.23
2022-09-12T04:42:56.088Z,5.00
2022-09-12T04:44:58.685Z,5.30
2022-09-12T04:47:01.369Z,4.70
2022-09-12T04:49:04.736Z,4.17
2022-09-12T04:51:15.174Z,4.00
2022-09-12T04:53:17.769Z,4.30
2022-09-12T04:55:21.531Z,4.13
2022-09-12T04:57:24.102Z,4.40
2022-09-12T04:59:26.886Z,4.50
2022-09-12T05:01:30.382Z,4.63
2022-09-12T05:03:33.764Z,5.10
2022-09-12T05:05:36.778Z,4.47
2022-09-12T05:07:39.331Z,5.00
2022-09-12T05:09:42.059Z,5.18
2022-09-12T05:14:08.307Z,4.27
2022-09-12T05:16:15.490Z,4.50
2022-09-12T05:18:18.067Z,4.70
2022-09-12T05:20:21.713Z,4.10
2022-09-12T05:22:24.278Z,4.53
2022-09-12T05:24:27.456Z,4.30
2022-09-12T05:26:30.590Z,4.40
2022-09-12T05:28:38.388Z,5.10
2022-09-12T05:30:40.963Z,4.90
2022-09-12T05:32:45.985Z,4.33
2022-09-12T05:34:48.611Z,5.37
2022-09-12T05:36:51.184Z,6.10
2022-09-12T05:38:54.230Z,6.87
2022-09-12T05:41:12.403Z,6.20
2022-09-12T05:43:20.358Z,6.03
2022-09-12T05:45:22.922Z,5.53
2022-09-12T05:47:25.464Z,5.60
2022-09-12T05:49:28.116Z,5.40
2022-09-12T05:51:35.853Z,6.17
2022-09-12T05:53:40.310Z,5.28
2022-09-12T05:55:42.889Z,5.37
2022-09-12T05:57:47.998Z,5.67
2022-09-12T05:59:50.838Z,5.57
2022-09-12T06:01:53.383Z,4.80
2022-09-12T06:04:02.345Z,4.90
2022-09-12T06:06:27.980Z,6.20
2022-09-12T06:08:32.651Z,5.70
2022-09-12T06:10:35.443Z,5.33
2022-09-12T06:12:37.973Z,5.87
2022-09-12T06:14:40.504Z,5.77
2022-09-12T06:16:56.992Z,6.37
2022-09-12T06:19:28.082Z,6.33
2022-09-12T06:21:37.892Z,7.28
2022-09-12T06:23:41.750Z,7.03
2022-09-12T06:25:52.138Z,6.93
2022-09-12T06:27:54.859Z,7.40
2022-09-12T06:29:57.838Z,7.40
2022-09-12T06:32:00.490Z,6.90
2022-09-12T06:34:08.238Z,6.90
2022-09-12T06:36:18.210Z,6.97
2022-09-12T06:38:20.767Z,8.07
2022-09-12T06:40:23.755Z,7.90
2022-09-12T06:42:26.405Z,8.13
2022-09-12T06:44:33.679Z,7.45
2022-09-12T06:46:38.814Z,7.20
2022-09-12T06:48:42.328Z,7.20
2022-09-12T06:51:03.610Z,7.70
2022-09-12T06:53:06.190Z,7.00
2022-09-12T06:55:12.294Z,7.60
2022-09-12T06:57:17.952Z,6.27
2022-09-12T06:59:20.695Z,6.60
2022-09-12T07:01:27.454Z,6.53
2022-09-12T07:03:30.478Z,7.27
2022-09-12T07:05:34.567Z,6.90
2022-09-12T07:07:38.177Z,6.82
2022-09-12T07:09:40.758Z,6.60
2022-09-12T07:11:45.170Z,6.43
2022-09-12T07:13:51.193Z,5.63
2022-09-12T07:15:53.832Z,6.38
2022-09-12T07:17:58.431Z,5.30
2022-09-12T07:20:03.379Z,6.60
2022-09-12T07:22:21.186Z,6.30
2022-09-12T07:24:23.706Z,6.30
2022-09-12T07:26:29.887Z,6.70
2022-09-12T07:28:34.594Z,6.50
2022-09-12T07:30:38.354Z,6.87
2022-09-12T07:32:40.933Z,6.05
2022-09-12T07:34:43.530Z,6.13
2022-09-12T07:36:46.170Z,5.30
2022-09-12T07:38:49.227Z,5.57
2022-09-12T07:40:51.739Z,5.10
2022-09-12T07:42:56.021Z,4.80
2022-09-12T07:45:07.997Z,4.63
2022-09-12T07:47:10.521Z,4.23
2022-09-12T07:49:13.351Z,4.60
2022-09-12T07:51:17.397Z,5.03
2022-09-12T07:53:19.920Z,4.40
2022-09-12T07:55:22.855Z,4.40
2022-09-12T07:57:32.327Z,4.17
2022-09-12T07:59:52.123Z,4.32
2022-09-12T08:01:55.428Z,4.38
2022-09-12T08:03:59.394Z,5.50
2022-09-12T08:06:04.894Z,4.30
2022-09-12T08:08:07.233Z,4.20
2022-09-12T08:10:10.118Z,4.47
2022-09-12T08:12:12.430Z,3.93
2022-09-12T08:14:14.766Z,3.70
2022-09-12T08:16:20.515Z,3.80
2022-09-12T08:18:22.751Z,4.17
2022-09-12T08:20:28.399Z,3.87
2022-09-12T08:22:31.631Z,4.50
2022-09-12T08:24:34.219Z,3.67
2022-09-12T08:26:37.178Z,3.47
2022-09-12T08:28:41.082Z,2.97
2022-09-12T08:30:43.374Z,2.63
2022-09-12T08:32:45.908Z,2.10
2022-09-12T08:34:48.178Z,2.40
2022-09-12T08:36:51.318Z,3.83
2022-09-12T08:39:00.620Z,2.90
2022-09-12T08:41:30.513Z,3.13
2022-09-12T08:43:46.044Z,3.23
2022-09-12T08:46:04.106Z,2.80
2022-09-12T08:48:09.965Z,2.80
2022-09-12T08:50:15.452Z,3.05
2022-09-12T08:52:27.579Z,2.77
2022-09-12T08:54:31.264Z,2.40
2022-09-12T08:56:37.643Z,2.47
2022-09-12T08:58:43.522Z,2.57
2022-09-12T09:01:04.529Z,2.37
2022-09-12T09:03:32.633Z,2.97
2022-09-12T09:05:37.607Z,2.47
2022-09-12T09:08:26.940Z,2.63
2022-09-12T09:10:48.876Z,2.67
2022-09-12T09:13:09.483Z,2.10
2022-09-12T09:15:32.496Z,2.50
2022-09-12T09:17:41.099Z,2.50
2022-09-12T09:19:51.776Z,2.00
2022-09-12T09:21:59.796Z,2.10
2022-09-12T09:24:10.282Z,2.33
2022-09-12T09:26:28.129Z,2.30
2022-09-12T09:28:44.909Z,1.80
2022-09-12T09:30:48.503Z,2.13
2022-09-12T09:33:01.295Z,2.30
2022-09-12T09:35:16.680Z,1.97
2022-09-12T09:37:21.453Z,2.10
2022-09-12T09:39:37.150Z,1.60
2022-09-12T09:42:09.579Z,1.70
2022-09-12T09:44:11.914Z,1.80
2022-09-12T09:46:15.019Z,1.70
2022-09-12T09:48:27.673Z,1.90
2022-09-12T09:50:29.970Z,1.80
2022-09-12T09:52:32.736Z,2.30
2022-09-12T09:54:53.325Z,1.83
2022-09-12T09:56:56.339Z,2.00
2022-09-12T09:59:18.371Z,2.20
2022-09-12T10:01:21.241Z,1.90
2022-09-12T10:03:40.247Z,1.80
2022-09-12T10:05:49.112Z,1.90
2022-09-12T10:07:52.677Z,1.75
2022-09-12T10:10:07.295Z,1.57
2022-09-12T10:12:29.922Z,1.97
2022-09-12T10:14:37.734Z,1.80
2022-09-12T10:16:53.422Z,2.30
2022-09-12T10:18:58.111Z,2.20
2022-09-12T10:21:01.752Z,1.90
2022-09-12T10:23:35.583Z,2.00
2022-09-12T10:25:38.383Z,2.20
2022-09-12T10:27:42.098Z,2.03
2022-09-12T10:30:01.444Z,2.00
2022-09-12T10:32:07.118Z,1.80
2022-09-12T10:34:22.735Z,1.60
2022-09-12T10:36:35.294Z,2.00
2022-09-12T10:38:38.029Z,1.73
2022-09-12T10:40:43.538Z,1.57
2022-09-12T10:42:58.275Z,1.63
2022-09-12T10:45:00.647Z,1.50
2022-09-12T10:47:21.305Z,1.80
2022-09-12T10:49:25.549Z,1.43
2022-09-12T10:51:29.595Z,2.10
2022-09-12T10:53:43.050Z,1.60
2022-09-12T10:56:12.890Z,1.43
2022-09-12T10:58:47.430Z,1.58
2022-09-12T11:00:58.874Z,1.50
2022-09-12T11:03:15.313Z,1.60
2022-09-12T11:05:57.568Z,2.00
2022-09-12T11:08:24.178Z,1.77
2022-09-12T11:10:42.573Z,1.60
2022-09-12T11:13:08.688Z,1.70
2022-09-12T11:15:38.774Z,2.10
2022-09-12T11:18:00.205Z,2.43
2022-09-12T11:20:29.880Z,2.20
2022-09-12T11:22:48.966Z,2.30
2022-09-12T11:25:12.950Z,1.80
2022-09-12T11:27:39.562Z,1.63
2022-09-12T11:29:53.040Z,1.90
2022-09-12T11:32:10.387Z,1.93
2022-09-12T11:34:24.003Z,4.43
2022-09-12T11:37:10.684Z,5.60
2022-09-12T11:39:17.797Z,2.13
2022-09-12T11:41:37.838Z,2.33
2022-09-12T11:44:01.391Z,2.10
2022-09-12T11:46:18.242Z,1.80
2022-09-12T11:48:44.914Z,1.77
2022-09-12T11:50:47.215Z,1.43
2022-09-12T11:52:51.630Z,1.70
2022-09-12T11:55:00.910Z,2.00
2022-09-12T11:57:20.114Z,1.83
2022-09-12T11:59:46.950Z,2.30
2022-09-12T12:01:55.143Z,2.20
2022-09-12T12:04:01.227Z,2.50
2022-09-12T12:06:30.684Z,2.20
2022-09-12T12:08:39.997Z,1.90
2022-09-12T12:10:52.899Z,1.70
2022-09-12T12:12:56.940Z,1.70
2022-09-12T12:15:00.591Z,1.90
2022-09-12T12:17:02.903Z,1.80
2022-09-12T12:19:14.501Z,2.37
2022-09-12T12:21:31.979Z,2.00
2022-09-12T12:23:35.432Z,1.83
2022-09-12T12:25:51.719Z,2.03
2022-09-12T12:27:59.973Z,1.70
2022-09-12T12:30:02.389Z,1.90
2022-09-12T12:32:04.765Z,1.97
2022-09-12T12:34:26.371Z,2.00
2022-09-12T12:36:35.668Z,1.50
2022-09-12T12:38:39.425Z,1.90
2022-09-12T12:40:41.704Z,1.90
2022-09-12T12:42:44.119Z,1.87
2022-09-12T12:44:49.404Z,1.80
2022-09-12T12:47:38.597Z,1.97
2022-09-12T12:49:41.112Z,1.60
2022-09-12T12:51:58.961Z,1.90
2022-09-12T12:54:03.755Z,1.50
2022-09-12T12:56:06.248Z,1.60
2022-09-12T12:58:26.578Z,1.67
2022-09-12T13:00:39.699Z,1.57
2022-09-12T13:02:55.942Z,1.77
2022-09-12T13:05:02.480Z,1.70
2022-09-12T13:07:09.176Z,1.50
2022-09-12T13:09:25.386Z,1.67
2022-09-12T13:11:32.117Z,1.63
2022-09-12T13:13:58.741Z,3.30
2022-09-12T13:16:01.075Z,2.23
2022-09-12T13:18:07.246Z,2.50
2022-09-12T13:20:28.243Z,1.70
2022-09-12T13:22:43.665Z,2.50
2022-09-12T13:24:48.967Z,2.20
2022-09-12T13:26:51.497Z,2.87
2022-09-12T13:29:17.786Z,2.40
2022-09-12T13:31:26.469Z,5.80
2022-09-12T13:33:42.737Z,2.83
2022-09-12T13:36:16.546Z,1.93
2022-09-12T13:38:32.381Z,2.40
2022-09-12T13:40:56.583Z,2.00
2022-09-12T13:43:15.394Z,1.80
2022-09-12T13:45:52.848Z,1.60
2022-09-12T13:48:02.132Z,1.77
2022-09-12T13:50:07.619Z,1.60
2022-09-12T13:52:18.975Z,1.40
2022-09-12T13:54:24.580Z,2.10
2022-09-12T13:56:35.771Z,1.50
2022-09-12T13:59:05.496Z,1.63
2022-09-12T14:01:14.787Z,1.90
2022-09-12T14:03:51.013Z,2.00
2022-09-12T14:05:57.551Z,1.38
2022-09-12T14:08:04.636Z,1.43
2022-09-12T14:10:09.901Z,1.73
2022-09-12T14:12:35.380Z,1.30
2022-09-12T14:14:44.146Z,1.50
2022-09-12T14:16:47.593Z,1.20
2022-09-12T14:18:51.892Z,1.80
2022-09-12T14:21:02.607Z,1.30
2022-09-12T14:23:20.477Z,1.40
2022-09-12T14:25:29.714Z,1.07
2022-09-12T14:27:43.134Z,1.30
2022-09-12T14:29:46.927Z,2.23
2022-09-12T14:32:04.700Z,2.00
2022-09-12T14:34:12.581Z,1.80
2022-09-12T14:36:24.159Z,1.53
2022-09-12T14:38:40.115Z,1.83
2022-09-12T14:40:49.938Z,1.60
2022-09-12T14:46:52.247Z,1.70
2022-09-12T14:49:06.656Z,1.77
2022-09-12T14:51:18.422Z,1.40
2022-09-12T14:53:33.539Z,1.47
2022-09-12T14:55:49.704Z,1.30
2022-09-12T14:58:20.440Z,1.47
2022-09-12T15:00:24.729Z,1.07
2022-09-12T15:02:27.534Z,1.53
2022-09-12T15:04:42.032Z,1.50
2022-09-12T15:06:44.342Z,1.00
2022-09-12T15:08:46.702Z,1.30
2022-09-12T15:10:49.240Z,1.50
2022-09-12T15:13:24.127Z,1.10
2022-09-12T15:15:26.423Z,0.97
2022-09-12T15:17:32.226Z,1.40
2022-09-12T15:19:34.583Z,1.67
2022-09-12T15:21:36.881Z,1.47
2022-09-12T15:23:49.290Z,1.30
2022-09-12T15:25:51.686Z,1.13
2022-09-12T15:27:56.031Z,1.50
2022-09-12T15:29:58.538Z,2.70
2022-09-12T15:32:00.974Z,1.97
2022-09-12T15:34:03.483Z,2.00
2022-09-12T15:36:13.632Z,1.70
2022-09-12T15:38:21.059Z,1.60
2022-09-12T15:40:26.702Z,1.80
2022-09-12T15:42:29.763Z,1.57
2022-09-12T15:44:32.032Z,1.20
2022-09-12T15:46:34.547Z,1.53
2022-09-12T15:48:36.972Z,1.60
2022-09-12T15:50:39.396Z,1.63
2022-09-12T15:52:42.117Z,1.63
2022-09-12T15:54:44.533Z,1.10
2022-09-12T15:56:55.158Z,1.40
2022-09-12T15:59:00.348Z,1.37
2022-09-12T16:01:03.254Z,1.30
2022-09-12T16:03:05.623Z,1.60
2022-09-12T16:05:18.518Z,1.27
2022-09-12T16:07:22.862Z,1.60
2022-09-12T16:09:25.260Z,2.60
2022-09-12T16:11:27.987Z,1.50
2022-09-12T16:13:30.367Z,2.13
2022-09-12T16:15:34.056Z,2.30
2022-09-12T16:18:47.903Z,1.93
2022-09-12T16:20:35.124Z,1.20
2022-09-12T16:22:38.241Z,2.40
2022-09-12T16:24:40.873Z,1.60
2022-09-12T16:26:43.280Z,1.80
2022-09-12T16:28:46.317Z,1.77
2022-09-12T16:31:01.813Z,1.40
2022-09-12T16:33:04.443Z,1.70
2022-09-12T16:35:09.811Z,1.50
2022-09-12T16:37:12.176Z,1.67
2022-09-12T16:39:14.740Z,2.03
2022-09-12T16:41:19.441Z,1.70
2022-09-12T16:43:22.548Z,2.73
2022-09-12T16:45:24.816Z,2.93
2022-09-12T16:47:27.351Z,3.00
2022-09-12T16:49:29.713Z,2.53
2022-09-12T16:51:37.602Z,4.10
2022-09-12T16:53:40.017Z,2.28
2022-09-12T16:55:49.432Z,2.27
2022-09-12T16:57:51.719Z,2.70
2022-09-12T16:59:54.099Z,3.03
2022-09-12T17:01:56.442Z,2.57
2022-09-12T17:03:59.416Z,2.83
2022-09-12T17:06:04.124Z,2.83
2022-09-12T17:08:06.875Z,2.30
2022-09-12T17:10:09.627Z,2.60
2022-09-12T17:12:11.915Z,2.50
2022-09-12T17:14:14.264Z,2.53
2022-09-12T17:16:17.264Z,2.67
2022-09-12T17:18:19.788Z,2.50
2022-09-12T17:20:22.073Z,2.90
2022-09-12T17:22:24.376Z,2.20
2022-09-12T17:24:41.976Z,3.33
2022-09-12T17:26:45.283Z,2.50
2022-09-12T17:28:47.639Z,2.10
2022-09-12T17:30:59.658Z,2.23
2022-09-12T17:33:02.111Z,2.57
2022-09-12T17:35:04.646Z,2.43
2022-09-12T17:37:06.927Z,2.07
2022-09-12T17:39:09.180Z,2.00
2022-09-12T17:41:16.085Z,1.93
2022-09-12T17:43:18.376Z,2.17
2022-09-12T17:45:20.627Z,1.93
2022-09-12T17:47:23.327Z,2.10
2022-09-12T17:49:27.403Z,1.67
2022-09-12T17:51:31.235Z,2.00
2022-09-12T17:53:34.634Z,1.80
2022-09-12T17:55:37.501Z,2.50
2022-09-12T17:57:40.270Z,2.50
2022-09-12T17:59:42.640Z,2.00
2022-09-12T18:02:04.805Z,1.75
2022-09-12T18:04:07.237Z,1.73
2022-09-12T18:06:09.858Z,1.75
2022-09-12T18:08:12.459Z,1.40
2022-09-12T18:10:14.880Z,1.60
2022-09-12T18:12:19.129Z,1.60
2022-09-12T18:14:22.318Z,1.60
2022-09-12T18:16:25.235Z,1.70
2022-09-12T18:18:28.444Z,1.60
2022-09-12T18:20:31.345Z,1.80
2022-09-12T18:22:33.594Z,2.00
2022-09-12T18:24:36.117Z,2.40
2022-09-12T18:26:38.940Z,2.07
2022-09-12T18:28:43.596Z,2.40
2022-09-12T18:30:46.041Z,2.03
2022-09-12T18:32:48.433Z,2.00
2022-09-12T18:34:51.343Z,2.50
2022-09-12T18:36:54.956Z,2.20
2022-09-12T18:38:58.967Z,2.10
2022-09-12T18:41:03.351Z,2.50
2022-09-12T18:43:05.792Z,2.30
2022-09-12T18:45:08.601Z,2.00
2022-09-12T18:47:10.824Z,2.30
2022-09-12T18:49:13.283Z,2.57
2022-09-12T18:51:18.108Z,3.30
2022-09-12T18:53:21.223Z,2.87
2022-09-12T18:55:23.969Z,3.43
2022-09-12T18:57:26.245Z,2.87
2022-09-12T18:59:28.509Z,3.33
2022-09-12T19:01:36.403Z,3.70
2022-09-12T19:03:38.805Z,3.43
2022-09-12T19:05:41.077Z,3.90
2022-09-12T19:07:43.502Z,4.37
2022-09-12T19:09:45.803Z,4.53
2022-09-12T19:11:49.873Z,4.27
2022-09-12T19:13:53.653Z,4.30
2022-09-12T19:15:55.974Z,4.57
2022-09-12T19:17:58.483Z,4.27
2022-09-12T19:20:00.914Z,3.77
2022-09-12T19:22:04.412Z,4.00
2022-09-12T19:24:11.445Z,4.63
2022-09-12T19:26:15.404Z,3.80
2022-09-12T19:28:17.606Z,3.63
2022-09-12T19:30:19.916Z,3.60
2022-09-12T19:32:22.229Z,4.13
2022-09-12T19:34:24.940Z,3.40
2022-09-12T19:36:55.194Z,3.08
2022-09-12T19:38:58.347Z,3.43
2022-09-12T19:41:03.790Z,3.00
2022-09-12T19:43:07.270Z,3.23
2022-09-12T19:45:10.401Z,3.30
2022-09-12T19:47:12.670Z,3.23
2022-09-12T19:49:15.057Z,3.40
2022-09-12T19:51:17.801Z,3.47
2022-09-12T19:53:20.841Z,3.60
2022-09-12T19:55:23.116Z,3.07
2022-09-12T19:57:25.346Z,3.00
2022-09-12T19:59:27.711Z,2.87
2022-09-12T20:01:30.103Z,3.30
2022-09-12T20:03:32.489Z,3.20
2022-09-12T20:05:36.743Z,2.50
2022-09-12T20:07:42.232Z,3.37
2022-09-12T20:09:44.500Z,2.83
2022-09-12T20:11:46.868Z,3.10
2022-09-12T20:13:49.766Z,3.00
2022-09-12T20:15:52.160Z,3.33
2022-09-12T20:17:57.153Z,3.13
2022-09-12T20:19:59.487Z,2.70
2022-09-12T20:22:01.773Z,3.50
2022-09-12T20:24:12.589Z,2.50
2022-09-12T20:26:15.054Z,3.23
2022-09-12T20:28:17.320Z,3.37
2022-09-12T20:30:19.648Z,3.00
2022-09-12T20:36:21.210Z,3.30
2022-09-12T20:38:23.526Z,3.20
2022-09-12T20:40:26.055Z,3.20
2022-09-12T20:42:29.470Z,3.27
2022-09-12T20:44:31.720Z,3.30
2022-09-12T20:46:34.085Z,3.03
2022-09-12T20:48:37.088Z,3.73
2022-09-12T20:50:39.338Z,2.90
2022-09-12T20:52:41.595Z,3.03
2022-09-12T20:54:43.879Z,3.00
2022-09-12T20:56:46.213Z,2.70
2022-09-12T20:58:48.479Z,3.20
2022-09-12T21:00:50.842Z,3.20
2022-09-12T21:02:53.159Z,3.00
2022-09-12T21:04:56.406Z,2.93
2022-09-12T21:06:58.683Z,2.53
2022-09-12T21:09:01.096Z,2.40
2022-09-12T21:11:03.732Z,2.97
2022-09-12T21:13:05.978Z,3.10
2022-09-12T21:15:08.895Z,3.53
2022-09-12T21:17:11.171Z,2.90
2022-09-12T21:19:13.439Z,2.80
2022-09-12T21:21:16.381Z,3.50
2022-09-12T21:23:18.686Z,3.00
2022-09-12T21:25:21.030Z,3.10
2022-09-12T21:27:23.382Z,2.90
2022-09-12T21:29:25.852Z,3.60
2022-09-12T21:31:28.174Z,3.53
2022-09-12T21:33:30.464Z,4.17
2022-09-12T21:35:34.639Z,4.40
2022-09-12T21:37:37.179Z,4.00
2022-09-12T21:39:39.641Z,4.10
2022-09-12T21:41:41.922Z,3.97
2022-09-12T21:43:44.430Z,3.57
2022-09-12T21:45:46.709Z,3.83
2022-09-12T21:47:48.951Z,4.70
2022-09-12T21:49:51.190Z,4.80
2022-09-12T21:51:53.501Z,4.87
2022-09-12T21:53:55.755Z,4.43
2022-09-12T21:56:08.366Z,4.63
2022-09-12T21:58:10.747Z,4.13
2022-09-12T22:00:15.971Z,3.90
2022-09-12T22:02:19.597Z,4.23
2022-09-12T22:04:22.171Z,4.65
2022-09-12T22:06:24.446Z,4.63
2022-09-12T22:08:26.765Z,4.10
2022-09-12T22:10:29.171Z,4.50
2022-09-12T22:12:31.561Z,3.60
2022-09-12T22:14:33.942Z,4.45
2022-09-12T22:16:36.284Z,4.23
2022-09-12T22:18:39.011Z,3.77
2022-09-12T22:20:41.307Z,3.53
2022-09-12T22:23:02.183Z,4.20
2022-09-12T22:25:05.073Z,4.70
2022-09-12T22:31:15.399Z,4.60
2022-09-12T22:33:17.699Z,4.70
2022-09-12T22:35:20.943Z,4.60
2022-09-12T22:37:23.171Z,4.73
2022-09-12T22:39:25.541Z,4.43
2022-09-12T22:41:28.525Z,5.70
2022-09-12T22:43:32.218Z,5.70
2022-09-12T22:45:34.552Z,5.90
2022-09-12T22:47:36.896Z,6.00
2022-09-12T22:49:39.167Z,6.00
2022-09-12T22:51:41.723Z,5.83
2022-09-12T22:53:43.979Z,6.03
2022-09-12T22:55:46.607Z,5.20
2022-09-12T22:57:49.088Z,6.20
2022-09-12T22:59:52.128Z,5.40
2022-09-12T23:01:54.419Z,5.60
2022-09-12T23:03:56.668Z,5.80
2022-09-12T23:05:58.999Z,5.90
2022-09-12T23:08:01.371Z,4.87
2022-09-12T23:10:03.944Z,4.83
2022-09-12T23:12:06.339Z,4.60
2022-09-12T23:14:08.655Z,4.97
2022-09-12T23:16:16.345Z,4.80
2022-09-12T23:18:18.645Z,5.00
2022-09-12T23:20:20.873Z,5.00
2022-09-12T23:22:23.151Z,4.03
2022-09-12T23:24:25.362Z,4.57
2022-09-12T23:26:31.019Z,5.17
2022-09-12T23:28:34.546Z,4.83
2022-09-12T23:30:38.113Z,4.40
2022-09-12T23:32:40.390Z,4.70
2022-09-12T23:34:42.625Z,4.80
2022-09-12T23:36:44.870Z,4.70
2022-09-12T23:38:47.506Z,5.10
2022-09-12T23:40:49.943Z,4.83
2022-09-12T23:42:52.218Z,4.93
2022-09-12T23:44:54.567Z,5.00
2022-09-12T23:46:56.869Z,3.70
2022-09-12T23:48:59.087Z,5.07
2022-09-12T23:51:01.946Z,4.80
2022-09-12T23:53:04.697Z,4.10
2022-09-12T23:55:07.466Z,4.67
2022-09-12T23:57:09.780Z,4.90
2022-09-12T23:59:12.025Z,4.40
